Time;durP1;ratioP1;P1;durP2;ratioP2;P2;SDS_P1;SDS_P2;PMS_P1;PMS_P2;Temp;Humidity;BMP_temperature;BMP_pressure;BME280_temperature;BME280_humidity;BME280_pressure;Samples;Min_cycle;Max_cycle;Signal;HPM_P1;HPM_P2
2023/01/14 00:02:19;;;;;;;7.70;1.80;;;6.90;99.90;;;;;;5071434;28;20044;-79
2023/01/14 00:04:45;;;;;;;11.60;2.70;;;6.90;99.90;;;;;;5070298;28;20499;-79
2023/01/14 00:07:11;;;;;;;6.22;1.70;;;6.90;99.90;;;;;;5070977;28;20474;-79
2023/01/14 00:09:36;;;;;;;7.05;1.48;;;6.90;99.90;;;;;;5072325;28;20044;-79
2023/01/14 00:12:02;;;;;;;10.00;2.20;;;6.90;99.90;;;;;;5070975;28;20049;-79
2023/01/14 00:14:30;;;;;;;8.95;1.95;;;6.80;99.90;;;;;;5071686;28;20055;-79
2023/01/14 00:16:57;;;;;;;9.90;2.25;;;6.80;99.90;;;;;;5070992;28;20048;-79
2023/01/14 00:19:24;;;;;;;11.77;2.13;;;6.80;99.90;;;;;;5071463;28;20051;-80
2023/01/14 00:21:50;;;;;;;12.35;1.85;;;6.90;99.90;;;;;;5072307;28;20052;-79
2023/01/14 00:24:19;;;;;;;10.55;1.58;;;6.90;99.90;;;;;;5071601;28;20048;-79
2023/01/14 00:26:45;;;;;;;7.25;2.10;;;6.90;99.90;;;;;;5072073;28;20101;-79
2023/01/14 00:29:20;;;;;;;6.88;1.63;;;6.90;99.90;;;;;;5070984;28;20056;-79
2023/01/14 00:31:46;;;;;;;11.95;2.75;;;6.90;99.90;;;;;;5072014;28;20046;-80
2023/01/14 00:34:12;;;;;;;;;;;7.00;99.90;;;;;;5071055;28;20041;-79
2023/01/14 00:36:38;;;;;;;6.68;1.50;;;6.90;99.90;;;;;;5070955;28;19960;-79
2023/01/14 00:39:04;;;;;;;7.07;1.35;;;6.90;99.90;;;;;;5070445;28;20087;-79
2023/01/14 00:41:30;;;;;;;11.18;2.30;;;6.90;99.90;;;;;;5072020;28;20041;-79
2023/01/14 00:43:58;;;;;;;9.05;2.42;;;6.90;99.90;;;;;;5070780;28;20572;-80
2023/01/14 00:46:26;;;;;;;8.60;1.48;;;6.90;99.90;;;;;;5070753;28;20052;-80
2023/01/14 00:48:52;;;;;;;15.15;2.63;;;6.90;99.90;;;;;;5069687;28;20131;-80
2023/01/14 00:51:19;;;;;;;8.38;1.10;;;7.00;99.90;;;;;;5069476;28;20135;-80
2023/01/14 00:53:46;;;;;;;6.10;1.45;;;6.90;99.90;;;;;;5069922;28;20366;-80
2023/01/14 00:56:13;;;;;;;10.30;1.70;;;6.90;99.90;;;;;;5070369;28;20044;-80
2023/01/14 00:58:39;;;;;;;11.55;1.65;;;6.90;99.90;;;;;;5070916;28;20052;-79
2023/01/14 01:01:05;;;;;;;17.52;1.80;;;6.90;99.90;;;;;;5070186;28;20417;-79
2023/01/14 01:03:31;;;;;;;4.30;1.60;;;6.90;99.90;;;;;;5070562;28;20051;-79
2023/01/14 01:05:57;;;;;;;;;;;6.80;99.90;;;;;;5071651;28;20048;-86
2023/01/14 01:08:22;;;;;;;9.10;1.60;;;6.80;99.90;;;;;;5070404;28;19924;-79
2023/01/14 01:10:51;;;;;;;15.13;2.22;;;6.80;99.90;;;;;;5053879;28;20080;-80
2023/01/14 01:13:17;;;;;;;12.02;1.80;;;6.80;99.90;;;;;;5071599;28;20224;-80
2023/01/14 01:15:43;;;;;;;9.43;1.70;;;6.80;99.90;;;;;;5070446;28;20138;-79
2023/01/14 01:18:11;;;;;;;14.70;2.20;;;6.80;99.90;;;;;;5069895;28;20048;-80
2023/01/14 01:20:37;;;;;;;6.97;1.63;;;6.70;99.90;;;;;;5071457;28;20060;-79
2023/01/14 01:23:04;;;;;;;6.45;1.58;;;6.70;99.90;;;;;;5069544;28;20052;-79
2023/01/14 01:25:30;;;;;;;16.27;2.35;;;6.70;99.90;;;;;;5070532;28;20470;-79
2023/01/14 01:27:57;;;;;;;12.20;1.73;;;6.70;99.90;;;;;;5070545;28;20048;-85
2023/01/14 01:30:25;;;;;;;8.27;1.85;;;6.70;99.90;;;;;;5070692;28;20099;-80
2023/01/14 01:32:52;;;;;;;8.65;1.50;;;6.70;99.90;;;;;;5071397;28;20124;-79
2023/01/14 01:35:18;;;;;;;11.27;1.70;;;6.80;99.90;;;;;;5053492;28;20473;-80
2023/01/14 01:37:43;;;;;;;13.75;3.83;;;6.80;99.90;;;;;;5070317;28;20102;-80
2023/01/14 01:40:11;;;;;;;10.30;1.70;;;6.80;99.90;;;;;;5070837;28;20390;-79
2023/01/14 01:42:54;;;;;;;9.00;1.98;;;6.80;99.90;;;;;;5069874;28;20424;-80
2023/01/14 01:45:43;;;;;;;11.75;1.70;;;6.90;99.90;;;;;;5070273;28;20053;-79
2023/01/14 01:48:35;;;;;;;19.45;2.83;;;6.90;99.90;;;;;;5069722;28;20051;-83
2023/01/14 01:51:11;;;;;;;10.93;2.00;;;6.90;99.90;;;;;;5069904;28;20052;-80
2023/01/14 01:53:40;;;;;;;11.57;2.13;;;6.90;99.90;;;;;;5070066;28;20394;-79
2023/01/14 01:56:07;;;;;;;8.77;2.45;;;7.00;99.90;;;;;;5070959;28;20048;-80
2023/01/14 01:58:34;;;;;;;15.55;2.40;;;6.90;99.90;;;;;;5071841;28;20104;-79
2023/01/14 02:01:00;;;;;;;12.85;2.50;;;6.80;99.90;;;;;;5073808;28;20132;-85
2023/01/14 02:03:38;;;;;;;10.30;1.63;;;6.90;99.90;;;;;;5073823;28;20439;-80
2023/01/14 02:06:04;;;;;;;7.90;1.65;;;6.80;99.90;;;;;;5073576;28;20059;-82
2023/01/14 02:08:31;;;;;;;12.95;2.85;;;6.80;99.90;;;;;;5074649;28;20052;-80
2023/01/14 02:11:12;;;;;;;12.43;2.05;;;6.80;99.90;;;;;;5073692;28;20393;-83
2023/01/14 02:14:14;;;;;;;11.10;2.15;;;6.80;99.90;;;;;;5073954;28;20052;-79
2023/01/14 02:16:43;;;;;;;15.40;2.20;;;6.80;99.90;;;;;;5029405;28;20063;-80
2023/01/14 02:19:19;;;;;;;15.05;2.53;;;6.80;99.90;;;;;;5073450;28;20490;-80
2023/01/14 02:21:58;;;;;;;14.32;1.95;;;6.80;99.90;;;;;;5074218;28;20061;-80
2023/01/14 02:24:41;;;;;;;11.02;1.70;;;6.80;99.90;;;;;;5074084;28;20052;-79
2023/01/14 02:27:32;;;;;;;12.48;2.42;;;6.80;99.90;;;;;;5073356;28;20055;-79
2023/01/14 02:30:19;;;;;;;19.38;2.20;;;6.90;99.90;;;;;;5073864;28;20382;-80
2023/01/14 02:33:25;;;;;;;17.23;2.17;;;6.90;99.90;;;;;;5074235;28;20119;-80
2023/01/14 02:36:23;;;;;;;12.60;1.90;;;6.90;99.90;;;;;;5008636;28;20139;-81
2023/01/14 02:38:56;;;;;;;;;;;6.90;99.90;;;;;;5073463;28;20048;-80
2023/01/14 02:44:23;;;;;;;13.60;2.40;;;6.90;99.90;;;;;;5074103;28;20071;-81
2023/01/14 02:46:58;;;;;;;18.00;3.08;;;7.00;99.90;;;;;;5072883;28;20094;-81
2023/01/14 02:49:28;;;;;;;5.93;1.75;;;6.90;99.90;;;;;;5072978;28;20052;-80
2023/01/14 02:51:56;;;;;;;13.32;2.40;;;6.90;99.90;;;;;;5073086;28;20397;-82
2023/01/14 02:54:22;;;;;;;15.32;2.30;;;7.00;99.90;;;;;;5072290;28;20501;-79
2023/01/14 02:56:49;;;;;;;10.23;1.92;;;7.00;99.90;;;;;;5072862;28;20052;-79
2023/01/14 02:59:32;;;;;;;13.70;2.90;;;6.90;99.90;;;;;;5073762;28;20098;-81
2023/01/14 03:02:10;;;;;;;7.00;2.28;;;7.00;99.90;;;;;;5072885;28;20371;-79
2023/01/14 03:04:35;;;;;;;7.75;1.77;;;7.00;99.90;;;;;;5073143;28;20048;-79
2023/01/14 03:07:09;;;;;;;14.55;3.00;;;7.00;99.90;;;;;;5072806;28;20045;-80
2023/01/14 03:09:50;;;;;;;5.00;1.83;;;7.00;99.90;;;;;;5072389;28;20048;-80
2023/01/14 03:13:10;;;;;;;13.00;2.10;;;7.00;99.90;;;;;;5072181;28;20049;-79
2023/01/14 03:15:56;;;;;;;13.45;2.00;;;6.90;99.90;;;;;;4995551;28;20050;-79
2023/01/14 03:18:35;;;;;;;11.57;1.77;;;6.90;99.90;;;;;;5072326;28;20052;-79
2023/01/14 03:21:26;;;;;;;10.23;1.92;;;6.90;99.90;;;;;;5071846;28;20295;-79
2023/01/14 03:24:17;;;;;;;12.52;1.95;;;6.80;99.90;;;;;;5072320;28;20082;-80
2023/01/14 03:26:47;;;;;;;15.88;2.80;;;6.80;99.90;;;;;;5072658;28;20052;-79
2023/01/14 03:29:22;;;;;;;11.55;1.80;;;6.70;99.90;;;;;;5073082;28;20059;-80
2023/01/14 03:31:55;;;;;;;9.95;2.20;;;6.60;99.90;;;;;;5072225;28;20052;-80
2023/01/14 03:34:26;;;;;;;8.77;2.53;;;6.50;99.90;;;;;;5071951;28;20053;-80
2023/01/14 03:36:55;;;;;;;12.98;2.83;;;6.30;99.90;;;;;;5071720;28;20132;-79
2023/01/14 03:39:23;;;;;;;16.20;2.42;;;6.30;99.90;;;;;;5070912;28;20078;-79
2023/01/14 03:45:05;;;;;;;10.48;2.17;;;6.10;99.90;;;;;;5072305;28;20101;-79
2023/01/14 03:47:33;;;;;;;8.73;2.03;;;6.10;99.90;;;;;;5063434;28;20139;-80
2023/01/14 03:50:02;;;;;;;6.95;1.67;;;6.00;99.90;;;;;;5073059;28;20090;-79
2023/01/14 03:52:39;;;;;;;10.77;1.60;;;6.00;99.90;;;;;;5072559;28;20036;-80
2023/01/14 03:55:15;;;;;;;11.85;1.77;;;6.00;99.90;;;;;;5072471;28;20049;-79
2023/01/14 03:58:00;;;;;;;9.98;1.80;;;6.00;99.90;;;;;;5071951;28;20044;-81
2023/01/14 04:00:33;;;;;;;8.43;1.45;;;6.00;99.90;;;;;;5071771;28;20084;-79
2023/01/14 04:03:02;;;;;;;9.70;2.67;;;6.00;99.90;;;;;;5071226;28;20054;-79
2023/01/14 04:05:28;;;;;;;9.90;2.40;;;6.00;99.90;;;;;;5071450;28;20078;-79
2023/01/14 04:07:56;;;;;;;9.77;1.70;;;5.90;99.90;;;;;;5071511;28;20444;-80
2023/01/14 04:10:22;;;;;;;8.18;2.20;;;6.40;99.90;;;;;;5071153;28;20497;-79
2023/01/14 04:15:32;;;;;;;16.52;2.20;;;5.90;99.90;;;;;;5071473;28;20110;-79
2023/01/14 04:17:57;;;;;;;6.43;1.25;;;5.90;99.90;;;;;;5054792;28;20128;-79
2023/01/14 04:20:23;;;;;;;16.83;2.33;;;5.90;99.90;;;;;;5072253;28;20048;-79
2023/01/14 04:22:49;;;;;;;4.70;1.52;;;5.90;99.90;;;;;;5070771;28;20053;-79
2023/01/14 04:25:14;;;;;;;13.57;2.30;;;6.20;99.90;;;;;;5070526;28;20048;-79
2023/01/14 04:27:40;;;;;;;17.35;2.42;;;5.90;99.90;;;;;;5072089;28;20055;-79
2023/01/14 04:30:06;;;;;;;23.70;3.58;;;6.10;99.90;;;;;;5071468;28;20135;-79
2023/01/14 04:32:32;;;;;;;17.20;3.33;;;5.90;99.90;;;;;;5070570;28;20052;-79
2023/01/14 04:34:58;;;;;;;20.30;3.03;;;5.90;99.90;;;;;;5071257;28;20048;-80
2023/01/14 04:37:23;;;;;;;18.15;2.85;;;5.90;99.90;;;;;;5070584;28;20052;-80
2023/01/14 04:39:50;;;;;;;18.45;2.55;;;6.20;99.90;;;;;;5070839;28;20052;-80
2023/01/14 04:42:28;;;;;;;17.08;2.38;;;5.80;99.90;;;;;;5070562;28;20046;-79
2023/01/14 04:45:04;;;;;;;6.25;1.85;;;5.80;99.90;;;;;;5071250;28;20090;-79
2023/01/14 04:47:30;;;;;;;11.02;2.28;;;5.80;99.90;;;;;;5070405;28;20056;-79
2023/01/14 04:49:56;;;;;;;16.00;2.20;;;5.80;99.90;;;;;;5071071;28;20089;-80
2023/01/14 04:52:23;;;;;;;18.90;3.22;;;5.80;99.90;;;;;;5070531;28;20131;-81
2023/01/14 04:54:50;;;;;;;19.40;3.17;;;5.70;99.90;;;;;;5070658;28;20052;-79
2023/01/14 04:57:17;;;;;;;13.13;2.40;;;5.70;99.90;;;;;;5070576;28;20048;-79
2023/01/14 04:59:42;;;;;;;16.50;3.10;;;5.70;99.90;;;;;;5071058;28;20490;-79
2023/01/14 05:02:08;;;;;;;17.05;3.75;;;5.70;99.90;;;;;;5070587;28;20133;-79
2023/01/14 05:04:35;;;;;;;19.25;2.90;;;5.70;99.90;;;;;;5070497;28;20050;-80
2023/01/14 05:07:02;;;;;;;12.75;2.58;;;5.70;99.90;;;;;;5070439;28;20049;-79
2023/01/14 05:09:28;;;;;;;17.20;2.10;;;5.80;99.90;;;;;;5070893;28;20412;-80
2023/01/14 05:11:54;;;;;;;;;;;5.70;99.90;;;;;;5070848;28;20517;-79
2023/01/14 05:14:19;;;;;;;14.02;2.92;;;5.70;99.90;;;;;;5069950;28;20019;-80
2023/01/14 05:16:45;;;;;;;17.58;2.83;;;5.70;99.90;;;;;;5071029;28;20448;-81
2023/01/14 05:19:11;;;;;;;13.10;2.70;;;5.70;99.90;;;;;;5071631;28;20443;-80
2023/01/14 05:21:36;;;;;;;25.77;3.20;;;5.70;99.90;;;;;;5069252;28;20144;-79
2023/01/14 05:24:02;;;;;;;21.27;3.00;;;5.80;99.90;;;;;;5070372;28;20052;-79
2023/01/14 05:26:28;;;;;;;14.65;2.53;;;5.70;99.90;;;;;;5070314;28;20056;-79
2023/01/14 05:28:53;;;;;;;12.20;2.97;;;5.90;99.90;;;;;;5070773;28;20091;-81
2023/01/14 05:31:19;;;;;;;23.38;4.15;;;5.60;99.90;;;;;;5070075;28;20051;-79
2023/01/14 05:33:45;;;;;;;10.65;2.63;;;5.60;99.90;;;;;;5072712;28;20048;-79
2023/01/14 05:36:10;;;;;;;27.80;3.13;;;5.60;99.90;;;;;;5074586;28;20048;-80
2023/01/14 05:38:36;;;;;;;15.90;3.63;;;5.60;99.90;;;;;;5057307;28;20045;-80
2023/01/14 05:41:02;;;;;;;17.58;3.08;;;5.60;99.90;;;;;;5074621;28;20493;-79
2023/01/14 05:46:17;;;;;;;19.20;3.53;;;5.60;99.90;;;;;;5060030;28;20062;-82
2023/01/14 05:48:43;;;;;;;15.50;3.28;;;5.50;99.90;;;;;;5074448;28;20056;-80
2023/01/14 05:51:12;;;;;;;29.90;3.95;;;5.60;99.90;;;;;;5074257;28;20043;-80
2023/01/14 05:53:38;;;;;;;25.27;4.53;;;5.50;99.90;;;;;;5057059;28;20118;-79
2023/01/14 05:56:04;;;;;;;18.77;4.10;;;5.60;99.90;;;;;;5075345;28;20056;-79
2023/01/14 05:58:29;;;;;;;;;;;5.60;99.90;;;;;;5057443;28;20049;-79
2023/01/14 06:06:36;;;;;;;17.30;3.50;;;5.50;99.90;;;;;;5073349;28;20052;-81
2023/01/14 06:09:07;;;;;;;22.60;4.25;;;5.50;99.90;;;;;;5073387;28;20102;-79
2023/01/14 06:11:33;;;;;;;14.55;3.67;;;5.70;99.90;;;;;;5073368;28;20092;-79
2023/01/14 06:13:59;;;;;;;19.20;3.08;;;5.50;99.90;;;;;;5073889;28;20547;-79
2023/01/14 06:16:27;;;;;;;;;;;5.40;99.90;;;;;;5073674;28;20045;-79
2023/01/14 06:18:53;;;;;;;22.50;5.03;;;5.40;99.90;;;;;;5073885;28;19927;-79
2023/01/14 06:21:22;;;;;;;24.58;3.10;;;5.40;99.90;;;;;;5072780;28;20055;-81
2023/01/14 06:23:48;;;;;;;19.40;3.30;;;5.40;99.90;;;;;;5073517;28;20062;-79
2023/01/14 06:26:17;;;;;;;16.60;2.80;;;5.60;99.90;;;;;;5073603;28;20052;-80
2023/01/14 06:28:43;;;;;;;23.13;3.08;;;5.50;99.90;;;;;;5073706;28;20102;-79
2023/01/14 06:31:10;;;;;;;;;;;5.50;99.90;;;;;;5074140;28;20080;-80
2023/01/14 06:33:35;;;;;;;25.07;4.17;;;5.50;99.90;;;;;;5073147;28;20003;-80
2023/01/14 06:36:01;;;;;;;20.67;3.50;;;5.50;99.90;;;;;;5073426;28;20375;-80
2023/01/14 06:38:27;;;;;;;25.60;4.82;;;5.50;99.90;;;;;;5072804;28;20053;-79
2023/01/14 06:40:53;;;;;;;28.77;4.38;;;5.50;99.90;;;;;;5073513;28;20045;-80
2023/01/14 06:43:18;;;;;;;24.08;3.05;;;5.60;99.90;;;;;;5072644;28;20102;-83
2023/01/14 06:45:50;;;;;;;17.00;3.30;;;5.60;99.90;;;;;;5073148;28;20128;-80
2023/01/14 06:48:16;;;;;;;13.65;3.30;;;5.60;99.90;;;;;;5073229;28;20080;-79
2023/01/14 06:50:41;;;;;;;17.75;3.05;;;5.60;99.90;;;;;;5074060;28;20502;-80
2023/01/14 06:53:07;;;;;;;24.77;5.25;;;5.60;99.90;;;;;;5072889;28;20469;-79
2023/01/14 06:55:33;;;;;;;18.55;4.10;;;5.50;99.90;;;;;;5073738;28;20486;-79
2023/01/14 06:57:58;;;;;;;24.10;2.97;;;5.60;99.90;;;;;;5073110;28;20444;-79
2023/01/14 07:00:24;;;;;;;21.88;3.92;;;5.60;99.90;;;;;;5073827;28;20049;-80
2023/01/14 07:02:50;;;;;;;15.85;3.17;;;5.60;99.90;;;;;;5073886;28;20086;-78
2023/01/14 07:05:16;;;;;;;18.10;2.65;;;5.60;99.90;;;;;;5056320;28;20041;-79
2023/01/14 07:07:44;;;;;;;26.45;4.25;;;5.70;99.90;;;;;;5055592;28;20124;-79
2023/01/14 07:10:10;;;;;;;22.45;4.18;;;5.70;99.90;;;;;;5072242;28;20123;-81
2023/01/14 07:12:36;;;;;;;21.98;3.45;;;5.70;99.90;;;;;;5072360;28;20194;-79
2023/01/14 07:15:02;;;;;;;20.70;4.00;;;5.70;99.90;;;;;;5073056;28;20055;-79
2023/01/14 07:17:27;;;;;;;;;;;5.70;99.90;;;;;;5072717;28;20040;-79
2023/01/14 07:19:53;;;;;;;22.20;3.92;;;5.70;99.90;;;;;;5072812;28;19943;-79
2023/01/14 07:22:19;;;;;;;25.40;3.40;;;5.70;99.90;;;;;;5072111;28;20057;-79
2023/01/14 07:24:45;;;;;;;14.55;2.80;;;5.70;99.90;;;;;;5071998;28;20084;-80
2023/01/14 07:27:10;;;;;;;14.43;3.38;;;5.80;99.90;;;;;;5072593;28;20049;-79
2023/01/14 07:29:36;;;;;;;19.33;2.90;;;5.80;99.90;;;;;;5055341;28;20048;-80
2023/01/14 07:32:02;;;;;;;24.80;4.47;;;5.90;99.90;;;;;;5072118;28;20131;-79
2023/01/14 07:34:27;;;;;;;21.52;5.22;;;5.90;99.90;;;;;;5073166;28;20110;-80
2023/01/14 07:36:53;;;;;;;29.90;4.35;;;5.90;99.90;;;;;;5072076;28;20052;-79
2023/01/14 07:39:19;;;;;;;18.55;3.20;;;5.90;99.90;;;;;;5072004;28;20494;-80
2023/01/14 07:41:44;;;;;;;24.90;4.60;;;5.90;99.90;;;;;;5071887;28;20127;-79
2023/01/14 07:44:10;;;;;;;22.60;3.63;;;6.00;99.90;;;;;;5072450;28;20469;-79
2023/01/14 07:46:36;;;;;;;18.50;3.63;;;5.90;99.90;;;;;;5055086;28;20071;-79
2023/01/14 07:49:01;;;;;;;18.92;3.47;;;6.00;99.90;;;;;;5055606;28;20052;-80
2023/01/14 07:51:27;;;;;;;20.83;3.60;;;6.00;99.90;;;;;;5071610;28;20486;-80
2023/01/14 07:53:52;;;;;;;18.48;3.05;;;6.10;99.90;;;;;;5071578;28;20040;-80
2023/01/14 07:56:18;;;;;;;18.95;3.65;;;6.00;99.90;;;;;;5071559;28;20108;-79
2023/01/14 07:58:47;;;;;;;13.18;2.63;;;6.10;99.90;;;;;;5072714;28;20044;-79
2023/01/14 08:01:13;;;;;;;20.52;3.03;;;6.10;99.90;;;;;;5071718;28;20102;-81
2023/01/14 08:03:38;;;;;;;17.48;2.95;;;6.10;99.90;;;;;;5072519;28;20048;-79
2023/01/14 08:06:06;;;;;;;14.85;3.35;;;6.10;99.90;;;;;;5055073;28;20041;-79
2023/01/14 08:08:33;;;;;;;12.05;2.65;;;6.10;99.90;;;;;;5071051;28;20051;-79
2023/01/14 08:11:00;;;;;;;13.05;2.45;;;6.20;99.90;;;;;;5054989;28;20050;-79
2023/01/14 08:13:27;;;;;;;15.93;3.17;;;6.20;99.90;;;;;;5072344;28;20056;-84
2023/01/14 08:15:57;;;;;;;13.73;3.05;;;6.20;99.90;;;;;;5071676;28;20059;-79
2023/01/14 08:18:24;;;;;;;11.63;2.10;;;6.20;99.90;;;;;;5071263;28;20053;-80
2023/01/14 08:21:00;;;;;;;;;;;6.20;99.90;;;;;;5071342;28;20052;-80
2023/01/14 08:23:26;;;;;;;13.70;2.60;;;6.20;99.90;;;;;;5070509;28;19921;-79
2023/01/14 08:25:52;;;;;;;13.13;3.17;;;6.30;99.90;;;;;;5072393;28;20375;-77
2023/01/14 08:28:18;;;;;;;21.48;2.42;;;6.30;99.90;;;;;;5072281;28;20052;-76
2023/01/14 08:30:44;;;;;;;12.50;2.10;;;6.20;99.90;;;;;;5071829;28;20059;-77
2023/01/14 08:33:10;;;;;;;10.90;2.28;;;6.20;99.90;;;;;;5071812;28;20044;-75
2023/01/14 08:35:40;;;;;;;11.90;2.45;;;6.20;99.90;;;;;;5053982;28;20048;-76
2023/01/14 08:38:06;;;;;;;13.77;2.17;;;6.20;99.90;;;;;;5071627;28;20555;-75
2023/01/14 08:40:33;;;;;;;14.18;2.13;;;6.10;99.90;;;;;;5071733;28;20090;-77
2023/01/14 08:42:58;;;;;;;15.10;2.13;;;6.40;99.90;;;;;;5071965;28;20113;-79
2023/01/14 08:45:24;;;;;;;19.75;2.65;;;6.10;99.90;;;;;;5071142;28;20048;-78
2023/01/14 08:47:50;;;;;;;22.92;2.85;;;6.10;99.90;;;;;;5070598;28;20052;-78
2023/01/14 08:50:16;;;;;;;27.52;3.40;;;6.10;99.90;;;;;;5071032;28;20048;-78
2023/01/14 08:52:42;;;;;;;22.40;2.72;;;6.10;99.90;;;;;;5070550;28;20052;-78
2023/01/14 08:55:08;;;;;;;11.32;2.33;;;6.20;99.90;;;;;;5070384;28;20055;-79
2023/01/14 08:57:34;;;;;;;13.10;2.70;;;6.10;99.90;;;;;;5070291;28;20131;-78
2023/01/14 09:00:00;;;;;;;22.50;2.17;;;6.10;99.90;;;;;;5054419;28;20135;-78
2023/01/14 09:02:26;;;;;;;15.02;3.95;;;6.10;99.90;;;;;;5070225;28;20044;-78
2023/01/14 09:04:51;;;;;;;23.05;3.60;;;6.10;99.90;;;;;;5071485;28;20052;-78
2023/01/14 09:18:14;;;;;;;10.82;2.50;;;6.20;99.90;;;;;;5070200;28;20091;-79
2023/01/14 09:20:42;;;;;;;11.52;2.20;;;6.20;99.90;;;;;;5071376;28;20076;-78
2023/01/14 09:23:09;;;;;;;15.43;2.20;;;6.30;99.90;;;;;;5069489;28;20071;-78
2023/01/14 09:25:35;;;;;;;;;;;6.10;99.90;;;;;;5070566;28;20135;-78
2023/01/14 09:28:01;;;;;;;14.70;2.42;;;6.20;99.90;;;;;;5070596;28;20040;-78
2023/01/14 09:30:27;;;;;;;11.52;2.58;;;6.30;99.90;;;;;;5071718;28;20202;-79
2023/01/14 09:32:53;;;;;;;9.18;3.30;;;6.30;99.90;;;;;;5069924;28;20682;-79
2023/01/14 09:35:19;;;;;;;9.02;2.03;;;6.20;99.90;;;;;;5070651;28;20070;-78
2023/01/14 09:37:45;;;;;;;10.60;2.80;;;6.20;99.90;;;;;;5069733;28;20446;-80
2023/01/14 09:40:11;;;;;;;6.47;2.33;;;6.30;99.90;;;;;;5053275;28;20478;-80
2023/01/14 09:42:41;;;;;;;;;;;6.30;99.90;;;;;;5070297;28;20098;-79
2023/01/14 09:45:24;;;;;;;8.63;2.55;;;6.30;99.90;;;;;;5070664;28;19943;-79
2023/01/14 09:47:50;;;;;;;8.20;2.10;;;6.30;99.90;;;;;;5070944;28;20055;-79
2023/01/14 09:50:40;;;;;;;10.10;2.30;;;6.30;99.90;;;;;;5070294;28;20098;-79
2023/01/14 09:53:39;;;;;;;8.13;2.10;;;6.30;99.90;;;;;;5032055;28;20512;-80
2023/01/14 09:56:13;;;;;;;8.15;2.15;;;6.30;99.90;;;;;;5070490;28;20389;-79
2023/01/14 09:58:49;;;;;;;10.25;2.10;;;6.30;99.90;;;;;;5069851;28;20055;-79
2023/01/14 10:01:19;;;;;;;8.50;1.90;;;6.40;99.90;;;;;;5069357;28;20462;-80
2023/01/14 10:03:59;;;;;;;8.35;2.20;;;6.40;99.90;;;;;;5052482;28;20056;-79
2023/01/14 10:06:24;;;;;;;8.88;2.65;;;6.40;99.90;;;;;;5069447;28;20485;-79
2023/01/14 10:09:18;;;;;;;7.57;2.47;;;6.40;99.90;;;;;;5069822;28;20091;-79
2023/01/14 10:11:46;;;;;;;9.88;2.65;;;6.40;99.90;;;;;;5069167;28;20049;-78
2023/01/14 10:14:17;;;;;;;5.68;1.70;;;6.50;99.90;;;;;;5070594;28;20048;-78
2023/01/14 10:16:46;;;;;;;8.20;2.45;;;6.40;99.90;;;;;;5052257;28;20098;-80
2023/01/14 10:19:36;;;;;;;7.22;2.60;;;6.50;99.90;;;;;;5070592;28;20087;-79
2023/01/14 10:22:17;;;;;;;8.05;2.47;;;6.50;99.90;;;;;;5072834;28;20068;-78
2023/01/14 10:24:43;;;;;;;10.85;2.83;;;6.60;99.90;;;;;;5072718;28;20110;-79
2023/01/14 10:27:18;;;;;;;11.43;2.17;;;6.60;99.90;;;;;;5074274;28;20048;-78
2023/01/14 10:29:45;;;;;;;10.02;2.88;;;6.80;99.90;;;;;;5056327;28;20057;-79
2023/01/14 10:32:14;;;;;;;7.78;2.80;;;6.60;99.90;;;;;;5073106;28;20059;-79
2023/01/14 10:34:48;;;;;;;8.73;2.80;;;6.60;99.90;;;;;;5072594;28;20044;-78
2023/01/14 10:37:14;;;;;;;7.50;2.70;;;6.60;99.90;;;;;;5072502;28;20052;-79
2023/01/14 10:39:47;;;;;;;6.85;2.47;;;6.60;99.90;;;;;;5072643;28;20049;-83
2023/01/14 10:42:13;;;;;;;6.78;3.17;;;6.70;99.90;;;;;;5073188;28;20074;-80
2023/01/14 10:44:43;;;;;;;7.47;3.08;;;6.60;99.90;;;;;;5072967;28;20098;-83
2023/01/14 10:47:16;;;;;;;10.32;2.58;;;6.60;99.90;;;;;;5074175;28;20044;-79
2023/01/14 10:49:57;;;;;;;4.35;2.55;;;7.00;99.90;;;;;;5072676;28;20056;-79
2023/01/14 10:52:31;;;;;;;4.88;2.85;;;6.70;99.90;;;;;;5073724;28;20040;-78
2023/01/14 10:55:11;;;;;;;10.00;2.80;;;6.70;99.90;;;;;;5072290;28;20106;-78
2023/01/14 10:58:08;;;;;;;7.55;2.70;;;6.80;99.90;;;;;;5072964;28;20048;-79
2023/01/14 11:00:39;;;;;;;4.20;2.08;;;6.80;99.90;;;;;;5066512;28;20076;-80
2023/01/14 11:03:09;;;;;;;7.68;2.08;;;6.90;99.90;;;;;;5071836;28;20048;-77
2023/01/14 11:05:37;;;;;;;4.13;1.98;;;6.90;99.90;;;;;;5073614;28;20075;-80
2023/01/14 11:08:32;;;;;;;4.82;1.73;;;7.00;99.90;;;;;;5071948;28;20082;-78
2023/01/14 11:11:02;;;;;;;8.98;1.85;;;7.00;99.90;;;;;;5072327;28;20049;-79
2023/01/14 11:13:41;;;;;;;5.78;2.30;;;7.10;99.90;;;;;;5072392;28;20114;-77
2023/01/14 11:16:29;;;;;;;6.22;1.92;;;7.10;99.90;;;;;;5072645;28;20482;-79
2023/01/14 11:18:59;;;;;;;7.82;1.60;;;7.10;99.90;;;;;;5072983;28;20494;-78
2023/01/14 11:21:35;;;;;;;3.08;1.25;;;7.20;99.90;;;;;;5071874;28;20055;-79
2023/01/14 11:24:03;;;;;;;5.00;1.50;;;7.20;99.90;;;;;;5071390;28;20060;-79
2023/01/14 11:26:33;;;;;;;8.25;1.80;;;7.20;99.90;;;;;;5072026;28;20095;-78
2023/01/14 11:29:16;;;;;;;3.67;1.33;;;7.20;99.90;;;;;;5071920;28;20151;-78
2023/01/14 11:31:43;;;;;;;3.38;1.40;;;7.30;99.90;;;;;;5071242;28;20109;-81
2023/01/14 11:34:27;;;;;;;3.45;1.17;;;7.30;99.90;;;;;;5071453;28;20053;-78
2023/01/14 11:37:10;;;;;;;5.30;1.30;;;7.30;99.90;;;;;;5071165;28;20048;-78
2023/01/14 11:39:38;;;;;;;3.67;1.30;;;7.30;99.90;;;;;;5071668;28;20135;-79
2023/01/14 11:42:26;;;;;;;3.78;1.00;;;7.30;99.90;;;;;;5072405;28;20101;-77
2023/01/14 11:44:59;;;;;;;1.52;1.27;;;7.30;99.90;;;;;;5071530;28;20049;-78
2023/01/14 11:47:26;;;;;;;9.98;1.75;;;7.30;99.90;;;;;;5072648;28;20059;-78
2023/01/14 11:50:25;;;;;;;4.60;1.60;;;7.40;99.90;;;;;;5072054;28;20401;-78
2023/01/14 11:52:58;;;;;;;3.60;1.30;;;7.40;99.90;;;;;;5027741;28;20064;-79
2023/01/14 11:55:26;;;;;;;4.07;1.10;;;7.40;99.90;;;;;;5072624;28;20056;-79
2023/01/14 11:57:52;;;;;;;9.13;2.53;;;7.30;99.90;;;;;;5072180;28;20050;-78
2023/01/14 12:00:20;;;;;;;5.28;1.40;;;7.30;99.90;;;;;;5071637;28;20436;-79
2023/01/14 12:02:58;;;;;;;1.58;1.13;;;7.30;99.90;;;;;;5072078;28;20086;-82
2023/01/14 12:05:25;;;;;;;3.28;1.30;;;7.40;99.90;;;;;;5071603;28;20063;-79
2023/01/14 12:07:54;;;;;;;3.45;1.55;;;7.40;99.90;;;;;;5070677;28;20071;-78
2023/01/14 12:10:33;;;;;;;8.57;2.20;;;7.40;99.90;;;;;;5070778;28;20088;-80
2023/01/14 12:19:25;;;;;;;5.72;1.52;;;7.50;99.90;;;;;;5070382;28;20056;-78
2023/01/14 12:22:19;;;;;;;3.83;1.42;;;7.50;99.90;;;;;;5034157;28;20387;-78
2023/01/14 12:24:59;;;;;;;3.13;1.20;;;7.50;99.90;;;;;;5067899;28;20048;-78
2023/01/14 12:27:52;;;;;;;6.18;1.48;;;7.50;99.90;;;;;;5071085;28;20121;-79
2023/01/14 12:30:26;;;;;;;2.17;1.30;;;7.50;99.90;;;;;;5071025;28;20048;-78
2023/01/14 12:32:58;;;;;;;3.72;1.48;;;7.60;99.90;;;;;;5069972;28;20055;-78
2023/01/14 12:35:25;;;;;;;5.68;1.40;;;7.60;99.90;;;;;;5070596;28;20199;-79
2023/01/14 12:37:59;;;;;;;5.22;1.50;;;7.60;99.90;;;;;;5071173;28;20047;-78
2023/01/14 12:46:12;;;;;;;2.72;1.48;;;7.70;99.90;;;;;;5070358;28;20048;-81
2023/01/14 12:48:39;;;;;;;3.50;1.45;;;7.70;99.90;;;;;;5070620;28;20079;-79
2023/01/14 12:51:08;;;;;;;4.57;1.60;;;7.70;99.90;;;;;;5071208;28;20086;-79
2023/01/14 12:53:51;;;;;;;2.42;1.38;;;7.70;99.90;;;;;;5070258;28;20620;-82
2023/01/14 12:56:30;;;;;;;2.25;1.13;;;7.80;99.90;;;;;;5071642;28;20123;-79
2023/01/14 12:59:02;;;;;;;1.80;1.30;;;7.80;99.90;;;;;;5070056;28;20456;-79
2023/01/14 13:01:40;;;;;;;5.20;1.50;;;7.90;99.90;;;;;;5069664;28;20509;-81
2023/01/14 13:04:18;;;;;;;4.32;1.60;;;7.90;99.90;;;;;;5070715;28;20123;-78
2023/01/14 13:06:45;;;;;;;3.30;1.17;;;7.90;99.90;;;;;;5071146;28;20091;-79
2023/01/14 13:09:26;;;;;;;1.80;1.10;;;7.90;99.90;;;;;;5070269;28;20044;-80
2023/01/14 13:11:54;;;;;;;3.45;1.33;;;7.90;99.90;;;;;;5070602;28;20494;-87
2023/01/14 13:14:39;;;;;;;1.20;1.10;;;8.00;99.90;;;;;;5071016;28;20037;-83
2023/01/14 13:17:18;;;;;;;1.52;1.27;;;8.00;99.90;;;;;;5070262;28;20056;-80
2023/01/14 13:19:52;;;;;;;2.38;1.33;;;8.00;99.90;;;;;;5070919;28;20074;-79
2023/01/14 13:22:50;;;;;;;1.50;1.08;;;8.10;99.90;;;;;;5070208;28;20052;-79
2023/01/14 13:25:32;;;;;;;1.80;0.90;;;8.10;99.90;;;;;;5069225;28;20155;-81
2023/01/14 13:28:19;;;;;;;9.07;1.63;;;8.10;99.90;;;;;;5071118;28;20048;-79
2023/01/14 13:30:50;;;;;;;1.05;0.90;;;8.20;99.90;;;;;;5071143;28;20131;-82
2023/01/14 13:33:33;;;;;;;1.83;0.82;;;8.20;99.90;;;;;;5072131;28;20049;-81
2023/01/14 13:36:11;;;;;;;3.38;1.00;;;8.30;99.90;;;;;;5071231;28;20052;-81
2023/01/14 13:38:47;;;;;;;1.13;0.90;;;8.30;99.90;;;;;;5070674;28;20386;-84
2023/01/14 13:41:49;;;;;;;1.97;1.03;;;8.30;99.90;;;;;;5068891;28;20067;-80
2023/01/14 13:44:28;;;;;;;1.85;1.00;;;8.40;99.90;;;;;;5069804;28;20310;-85
2023/01/14 13:47:00;;;;;;;4.32;1.20;;;8.50;99.90;;;;;;5069226;28;20068;-86
2023/01/14 13:49:36;;;;;;;2.92;1.10;;;8.50;99.90;;;;;;5070554;28;20127;-80
2023/01/14 13:52:25;;;;;;;2.63;1.08;;;8.50;99.90;;;;;;5069674;28;20048;-80
2023/01/14 13:54:56;;;;;;;0.60;0.60;;;8.60;99.90;;;;;;5070230;28;20045;-81
2023/01/14 13:57:43;;;;;;;0.82;0.73;;;8.50;99.90;;;;;;5075140;28;20052;-80